sensor_id;sensor_type;location;lat;lon;timestamp;P1;durP1;ratioP1;P2;durP2;ratioP2
16436;SDS011;8328;52.206;21.006;2023-03-23T00:01:05;28.23;;;20.47;;
16436;SDS011;8328;52.206;21.006;2023-03-23T00:03:36;30.83;;;21.43;;
16436;SDS011;8328;52.206;21.006;2023-03-23T00:06:03;30.63;;;21.37;;
16436;SDS011;8328;52.206;21.006;2023-03-23T00:08:33;29.93;;;21.13;;
16436;SDS011;8328;52.206;21.006;2023-03-23T00:11:03;31.80;;;21.70;;
16436;SDS011;8328;52.206;21.006;2023-03-23T00:13:29;31.23;;;22.00;;
16436;SDS011;8328;52.206;21.006;2023-03-23T00:15:56;32.00;;;21.27;;
16436;SDS011;8328;52.206;21.006;2023-03-23T00:18:22;32.57;;;21.57;;
16436;SDS011;8328;52.206;21.006;2023-03-23T00:20:52;30.13;;;21.20;;
16436;SDS011;8328;52.206;21.006;2023-03-23T00:23:21;28.87;;;20.40;;
16436;SDS011;8328;52.206;21.006;2023-03-23T00:25:50;29.50;;;20.70;;
16436;SDS011;8328;52.206;21.006;2023-03-23T00:28:18;30.87;;;21.30;;
16436;SDS011;8328;52.206;21.006;2023-03-23T00:30:56;31.00;;;21.53;;
16436;SDS011;8328;52.206;21.006;2023-03-23T00:33:27;32.57;;;21.87;;
16436;SDS011;8328;52.206;21.006;2023-03-23T00:35:55;32.10;;;21.97;;
16436;SDS011;8328;52.206;21.006;2023-03-23T00:38:22;33.17;;;21.90;;
16436;SDS011;8328;52.206;21.006;2023-03-23T00:40:49;32.63;;;21.43;;
16436;SDS011;8328;52.206;21.006;2023-03-23T00:43:16;31.40;;;21.77;;
16436;SDS011;8328;52.206;21.006;2023-03-23T00:45:43;31.10;;;20.97;;
16436;SDS011;8328;52.206;21.006;2023-03-23T00:48:11;28.63;;;20.77;;
16436;SDS011;8328;52.206;21.006;2023-03-23T00:50:39;31.10;;;20.90;;
16436;SDS011;8328;52.206;21.006;2023-03-23T00:53:06;27.80;;;21.40;;
16436;SDS011;8328;52.206;21.006;2023-03-23T00:55:32;29.30;;;20.93;;
16436;SDS011;8328;52.206;21.006;2023-03-23T00:57:58;34.50;;;22.40;;
16436;SDS011;8328;52.206;21.006;2023-03-23T01:00:25;30.70;;;21.77;;
16436;SDS011;8328;52.206;21.006;2023-03-23T01:02:54;30.77;;;21.93;;
16436;SDS011;8328;52.206;21.006;2023-03-23T01:05:20;31.17;;;21.80;;
16436;SDS011;8328;52.206;21.006;2023-03-23T01:07:46;29.73;;;20.73;;
16436;SDS011;8328;52.206;21.006;2023-03-23T01:10:13;32.67;;;22.03;;
16436;SDS011;8328;52.206;21.006;2023-03-23T01:12:46;27.93;;;20.43;;
16436;SDS011;8328;52.206;21.006;2023-03-23T01:15:16;30.63;;;21.93;;
16436;SDS011;8328;52.206;21.006;2023-03-23T01:17:42;29.73;;;21.60;;
16436;SDS011;8328;52.206;21.006;2023-03-23T01:20:09;30.60;;;20.40;;
16436;SDS011;8328;52.206;21.006;2023-03-23T01:22:36;28.27;;;20.53;;
16436;SDS011;8328;52.206;21.006;2023-03-23T01:25:02;32.07;;;21.27;;
16436;SDS011;8328;52.206;21.006;2023-03-23T01:27:28;30.50;;;22.13;;
16436;SDS011;8328;52.206;21.006;2023-03-23T01:29:55;32.30;;;21.83;;
16436;SDS011;8328;52.206;21.006;2023-03-23T01:32:21;31.93;;;21.17;;
16436;SDS011;8328;52.206;21.006;2023-03-23T01:34:46;28.37;;;20.67;;
16436;SDS011;8328;52.206;21.006;2023-03-23T01:37:12;27.93;;;20.50;;
16436;SDS011;8328;52.206;21.006;2023-03-23T01:39:38;29.57;;;20.17;;
16436;SDS011;8328;52.206;21.006;2023-03-23T01:42:04;31.03;;;20.60;;
16436;SDS011;8328;52.206;21.006;2023-03-23T01:46:56;32.20;;;21.30;;
16436;SDS011;8328;52.206;21.006;2023-03-23T01:49:39;29.90;;;20.47;;
16436;SDS011;8328;52.206;21.006;2023-03-23T01:52:12;30.40;;;21.40;;
16436;SDS011;8328;52.206;21.006;2023-03-23T01:54:42;30.97;;;21.20;;
16436;SDS011;8328;52.206;21.006;2023-03-23T01:57:17;29.87;;;21.07;;
16436;SDS011;8328;52.206;21.006;2023-03-23T01:59:47;29.50;;;20.00;;
16436;SDS011;8328;52.206;21.006;2023-03-23T02:02:19;32.33;;;20.37;;
16436;SDS011;8328;52.206;21.006;2023-03-23T02:04:47;27.37;;;20.33;;
16436;SDS011;8328;52.206;21.006;2023-03-23T02:07:15;29.53;;;19.90;;
16436;SDS011;8328;52.206;21.006;2023-03-23T02:09:44;27.83;;;20.27;;
16436;SDS011;8328;52.206;21.006;2023-03-23T02:12:10;34.47;;;21.57;;
16436;SDS011;8328;52.206;21.006;2023-03-23T02:14:36;29.83;;;19.43;;
16436;SDS011;8328;52.206;21.006;2023-03-23T02:17:15;28.13;;;20.07;;
16436;SDS011;8328;52.206;21.006;2023-03-23T02:25:58;29.73;;;20.30;;
16436;SDS011;8328;52.206;21.006;2023-03-23T02:31:53;27.90;;;19.57;;
16436;SDS011;8328;52.206;21.006;2023-03-23T02:34:48;27.23;;;18.93;;
16436;SDS011;8328;52.206;21.006;2023-03-23T02:40:44;28.00;;;19.90;;
16436;SDS011;8328;52.206;21.006;2023-03-23T02:43:12;28.50;;;19.43;;
16436;SDS011;8328;52.206;21.006;2023-03-23T02:45:43;26.40;;;19.07;;
16436;SDS011;8328;52.206;21.006;2023-03-23T02:48:10;26.97;;;19.10;;
16436;SDS011;8328;52.206;21.006;2023-03-23T02:50:40;26.53;;;18.63;;
16436;SDS011;8328;52.206;21.006;2023-03-23T02:53:10;26.63;;;18.40;;
16436;SDS011;8328;52.206;21.006;2023-03-23T02:55:38;27.30;;;19.03;;
16436;SDS011;8328;52.206;21.006;2023-03-23T02:58:08;25.37;;;19.10;;
16436;SDS011;8328;52.206;21.006;2023-03-23T03:00:35;27.80;;;18.87;;
16436;SDS011;8328;52.206;21.006;2023-03-23T03:03:05;28.27;;;18.90;;
16436;SDS011;8328;52.206;21.006;2023-03-23T03:08:35;28.20;;;18.33;;
16436;SDS011;8328;52.206;21.006;2023-03-23T03:11:16;25.77;;;17.77;;
16436;SDS011;8328;52.206;21.006;2023-03-23T03:13:55;24.37;;;17.60;;
16436;SDS011;8328;52.206;21.006;2023-03-23T03:19:14;24.60;;;17.17;;
16436;SDS011;8328;52.206;21.006;2023-03-23T03:21:44;21.73;;;15.93;;
16436;SDS011;8328;52.206;21.006;2023-03-23T03:24:14;22.03;;;15.63;;
16436;SDS011;8328;52.206;21.006;2023-03-23T03:26:44;22.43;;;16.43;;
16436;SDS011;8328;52.206;21.006;2023-03-23T03:29:22;22.70;;;16.07;;
16436;SDS011;8328;52.206;21.006;2023-03-23T03:31:51;22.87;;;16.43;;
16436;SDS011;8328;52.206;21.006;2023-03-23T03:34:20;22.13;;;16.47;;
16436;SDS011;8328;52.206;21.006;2023-03-23T03:36:48;24.57;;;16.50;;
16436;SDS011;8328;52.206;21.006;2023-03-23T03:39:17;20.97;;;15.80;;
16436;SDS011;8328;52.206;21.006;2023-03-23T03:41:45;23.90;;;16.43;;
16436;SDS011;8328;52.206;21.006;2023-03-23T03:44:23;21.07;;;16.27;;
16436;SDS011;8328;52.206;21.006;2023-03-23T03:46:49;23.57;;;16.40;;
16436;SDS011;8328;52.206;21.006;2023-03-23T03:49:14;23.33;;;16.43;;
16436;SDS011;8328;52.206;21.006;2023-03-23T03:51:42;23.97;;;15.93;;
16436;SDS011;8328;52.206;21.006;2023-03-23T03:54:08;24.67;;;16.67;;
16436;SDS011;8328;52.206;21.006;2023-03-23T03:56:35;22.60;;;15.73;;
16436;SDS011;8328;52.206;21.006;2023-03-23T03:59:05;25.27;;;15.57;;
16436;SDS011;8328;52.206;21.006;2023-03-23T04:01:33;23.57;;;17.10;;
16436;SDS011;8328;52.206;21.006;2023-03-23T04:03:59;23.77;;;16.50;;
16436;SDS011;8328;52.206;21.006;2023-03-23T04:06:25;21.37;;;16.03;;
16436;SDS011;8328;52.206;21.006;2023-03-23T04:08:53;22.60;;;15.20;;
16436;SDS011;8328;52.206;21.006;2023-03-23T04:11:25;22.33;;;15.73;;
16436;SDS011;8328;52.206;21.006;2023-03-23T04:13:52;21.33;;;15.73;;
16436;SDS011;8328;52.206;21.006;2023-03-23T04:16:18;21.50;;;16.37;;
16436;SDS011;8328;52.206;21.006;2023-03-23T04:18:44;25.10;;;16.63;;
16436;SDS011;8328;52.206;21.006;2023-03-23T04:21:12;24.73;;;15.90;;
16436;SDS011;8328;52.206;21.006;2023-03-23T04:23:39;23.00;;;15.30;;
16436;SDS011;8328;52.206;21.006;2023-03-23T04:26:05;21.93;;;16.23;;
16436;SDS011;8328;52.206;21.006;2023-03-23T04:28:31;24.00;;;15.20;;
16436;SDS011;8328;52.206;21.006;2023-03-23T04:30:58;25.03;;;15.70;;
16436;SDS011;8328;52.206;21.006;2023-03-23T04:33:26;19.60;;;15.20;;
16436;SDS011;8328;52.206;21.006;2023-03-23T04:35:56;24.30;;;14.97;;
16436;SDS011;8328;52.206;21.006;2023-03-23T04:38:26;20.87;;;15.60;;
16436;SDS011;8328;52.206;21.006;2023-03-23T04:40:53;20.63;;;15.10;;
16436;SDS011;8328;52.206;21.006;2023-03-23T04:43:20;21.57;;;14.67;;
16436;SDS011;8328;52.206;21.006;2023-03-23T04:45:55;21.50;;;15.23;;
16436;SDS011;8328;52.206;21.006;2023-03-23T04:48:23;20.60;;;14.80;;
16436;SDS011;8328;52.206;21.006;2023-03-23T04:50:49;21.20;;;15.53;;
16436;SDS011;8328;52.206;21.006;2023-03-23T04:53:16;21.20;;;15.13;;
16436;SDS011;8328;52.206;21.006;2023-03-23T04:55:42;21.13;;;15.87;;
16436;SDS011;8328;52.206;21.006;2023-03-23T04:58:09;22.33;;;15.60;;
16436;SDS011;8328;52.206;21.006;2023-03-23T05:00:37;20.20;;;14.70;;
16436;SDS011;8328;52.206;21.006;2023-03-23T05:03:03;24.57;;;15.10;;
16436;SDS011;8328;52.206;21.006;2023-03-23T05:05:31;18.90;;;14.17;;
16436;SDS011;8328;52.206;21.006;2023-03-23T05:08:17;20.40;;;14.57;;
16436;SDS011;8328;52.206;21.006;2023-03-23T05:10:53;20.57;;;14.87;;
16436;SDS011;8328;52.206;21.006;2023-03-23T05:13:20;21.47;;;14.17;;
16436;SDS011;8328;52.206;21.006;2023-03-23T05:15:47;24.17;;;16.20;;
16436;SDS011;8328;52.206;21.006;2023-03-23T05:18:14;23.80;;;15.43;;
16436;SDS011;8328;52.206;21.006;2023-03-23T05:20:41;20.03;;;15.37;;
16436;SDS011;8328;52.206;21.006;2023-03-23T05:23:07;22.90;;;15.17;;
16436;SDS011;8328;52.206;21.006;2023-03-23T05:25:35;23.83;;;15.73;;
16436;SDS011;8328;52.206;21.006;2023-03-23T05:28:06;22.43;;;16.27;;
16436;SDS011;8328;52.206;21.006;2023-03-23T05:30:33;22.67;;;17.27;;
16436;SDS011;8328;52.206;21.006;2023-03-23T05:33:02;23.77;;;17.07;;
16436;SDS011;8328;52.206;21.006;2023-03-23T05:35:29;24.47;;;17.13;;
16436;SDS011;8328;52.206;21.006;2023-03-23T05:37:55;26.63;;;18.50;;
16436;SDS011;8328;52.206;21.006;2023-03-23T05:40:22;22.97;;;15.33;;
16436;SDS011;8328;52.206;21.006;2023-03-23T05:42:50;21.43;;;15.27;;
16436;SDS011;8328;52.206;21.006;2023-03-23T05:45:17;26.97;;;15.47;;
16436;SDS011;8328;52.206;21.006;2023-03-23T05:47:44;19.43;;;14.57;;
16436;SDS011;8328;52.206;21.006;2023-03-23T05:50:12;21.43;;;14.47;;
16436;SDS011;8328;52.206;21.006;2023-03-23T05:52:38;20.63;;;14.33;;
16436;SDS011;8328;52.206;21.006;2023-03-23T05:55:05;21.03;;;14.10;;
16436;SDS011;8328;52.206;21.006;2023-03-23T05:57:32;20.90;;;14.37;;
16436;SDS011;8328;52.206;21.006;2023-03-23T05:59:59;19.37;;;13.50;;
16436;SDS011;8328;52.206;21.006;2023-03-23T06:02:25;16.87;;;13.47;;
16436;SDS011;8328;52.206;21.006;2023-03-23T06:04:54;21.73;;;13.37;;
16436;SDS011;8328;52.206;21.006;2023-03-23T06:07:23;18.47;;;13.73;;
16436;SDS011;8328;52.206;21.006;2023-03-23T06:09:50;18.87;;;13.47;;
16436;SDS011;8328;52.206;21.006;2023-03-23T06:12:17;18.27;;;12.53;;
16436;SDS011;8328;52.206;21.006;2023-03-23T06:14:52;18.83;;;13.87;;
16436;SDS011;8328;52.206;21.006;2023-03-23T06:17:18;20.17;;;13.03;;
16436;SDS011;8328;52.206;21.006;2023-03-23T06:19:44;21.87;;;13.60;;
16436;SDS011;8328;52.206;21.006;2023-03-23T06:22:14;17.07;;;13.10;;
16436;SDS011;8328;52.206;21.006;2023-03-23T06:24:41;18.53;;;13.00;;
16436;SDS011;8328;52.206;21.006;2023-03-23T06:27:10;19.43;;;13.57;;
16436;SDS011;8328;52.206;21.006;2023-03-23T06:29:41;19.77;;;13.50;;
16436;SDS011;8328;52.206;21.006;2023-03-23T06:32:10;19.17;;;14.20;;
16436;SDS011;8328;52.206;21.006;2023-03-23T06:34:37;16.67;;;13.30;;
16436;SDS011;8328;52.206;21.006;2023-03-23T06:37:05;17.93;;;13.20;;
16436;SDS011;8328;52.206;21.006;2023-03-23T06:39:34;16.73;;;12.40;;
16436;SDS011;8328;52.206;21.006;2023-03-23T06:42:02;24.13;;;14.17;;
16436;SDS011;8328;52.206;21.006;2023-03-23T06:44:28;15.90;;;12.57;;
16436;SDS011;8328;52.206;21.006;2023-03-23T06:46:54;17.77;;;13.07;;
16436;SDS011;8328;52.206;21.006;2023-03-23T06:49:20;19.37;;;13.97;;
16436;SDS011;8328;52.206;21.006;2023-03-23T06:51:47;17.20;;;12.33;;
16436;SDS011;8328;52.206;21.006;2023-03-23T06:54:13;17.07;;;11.87;;
16436;SDS011;8328;52.206;21.006;2023-03-23T06:56:39;18.23;;;13.30;;
16436;SDS011;8328;52.206;21.006;2023-03-23T06:59:05;16.57;;;11.90;;
16436;SDS011;8328;52.206;21.006;2023-03-23T07:01:32;15.20;;;11.73;;
16436;SDS011;8328;52.206;21.006;2023-03-23T07:03:58;16.53;;;11.30;;
16436;SDS011;8328;52.206;21.006;2023-03-23T07:06:24;18.60;;;12.43;;
16436;SDS011;8328;52.206;21.006;2023-03-23T07:08:52;14.40;;;11.40;;
16436;SDS011;8328;52.206;21.006;2023-03-23T07:11:18;17.70;;;12.83;;
16436;SDS011;8328;52.206;21.006;2023-03-23T07:13:44;16.20;;;12.27;;
16436;SDS011;8328;52.206;21.006;2023-03-23T07:16:11;15.53;;;11.70;;
16436;SDS011;8328;52.206;21.006;2023-03-23T07:18:37;18.23;;;12.27;;
16436;SDS011;8328;52.206;21.006;2023-03-23T07:21:02;19.47;;;11.33;;
16436;SDS011;8328;52.206;21.006;2023-03-23T07:23:29;19.00;;;11.00;;
16436;SDS011;8328;52.206;21.006;2023-03-23T07:25:55;17.90;;;11.60;;
16436;SDS011;8328;52.206;21.006;2023-03-23T07:28:22;15.83;;;11.80;;
16436;SDS011;8328;52.206;21.006;2023-03-23T07:30:48;16.77;;;11.10;;
16436;SDS011;8328;52.206;21.006;2023-03-23T07:33:14;18.90;;;11.50;;
16436;SDS011;8328;52.206;21.006;2023-03-23T07:35:40;17.50;;;10.63;;
16436;SDS011;8328;52.206;21.006;2023-03-23T07:38:06;14.60;;;10.63;;
16436;SDS011;8328;52.206;21.006;2023-03-23T07:40:34;14.60;;;10.83;;
16436;SDS011;8328;52.206;21.006;2023-03-23T07:43:00;14.50;;;10.37;;
16436;SDS011;8328;52.206;21.006;2023-03-23T07:45:28;15.03;;;10.53;;
16436;SDS011;8328;52.206;21.006;2023-03-23T07:47:54;15.60;;;11.40;;
16436;SDS011;8328;52.206;21.006;2023-03-23T07:50:21;13.57;;;10.20;;
16436;SDS011;8328;52.206;21.006;2023-03-23T07:52:49;16.60;;;9.53;;
16436;SDS011;8328;52.206;21.006;2023-03-23T07:55:16;13.37;;;9.73;;
16436;SDS011;8328;52.206;21.006;2023-03-23T07:57:52;12.80;;;10.13;;
16436;SDS011;8328;52.206;21.006;2023-03-23T08:00:19;13.57;;;9.63;;
16436;SDS011;8328;52.206;21.006;2023-03-23T08:02:48;11.80;;;9.00;;
16436;SDS011;8328;52.206;21.006;2023-03-23T08:05:25;12.37;;;9.43;;
16436;SDS011;8328;52.206;21.006;2023-03-23T08:07:53;12.83;;;8.83;;
16436;SDS011;8328;52.206;21.006;2023-03-23T08:10:20;11.37;;;8.53;;
16436;SDS011;8328;52.206;21.006;2023-03-23T08:12:50;11.70;;;8.97;;
16436;SDS011;8328;52.206;21.006;2023-03-23T08:15:17;10.47;;;8.20;;
16436;SDS011;8328;52.206;21.006;2023-03-23T08:17:44;11.43;;;8.73;;
16436;SDS011;8328;52.206;21.006;2023-03-23T08:20:12;10.70;;;7.97;;
16436;SDS011;8328;52.206;21.006;2023-03-23T08:22:44;14.77;;;10.00;;
16436;SDS011;8328;52.206;21.006;2023-03-23T08:25:17;11.73;;;8.77;;
16436;SDS011;8328;52.206;21.006;2023-03-23T08:27:44;11.83;;;9.07;;
16436;SDS011;8328;52.206;21.006;2023-03-23T08:30:11;11.87;;;8.30;;
16436;SDS011;8328;52.206;21.006;2023-03-23T08:32:39;11.13;;;7.80;;
16436;SDS011;8328;52.206;21.006;2023-03-23T08:35:11;9.90;;;8.23;;
16436;SDS011;8328;52.206;21.006;2023-03-23T08:37:40;11.33;;;7.87;;
16436;SDS011;8328;52.206;21.006;2023-03-23T08:40:10;9.13;;;6.43;;
16436;SDS011;8328;52.206;21.006;2023-03-23T08:42:57;9.70;;;6.87;;
16436;SDS011;8328;52.206;21.006;2023-03-23T08:45:24;11.63;;;6.63;;
16436;SDS011;8328;52.206;21.006;2023-03-23T08:47:51;9.80;;;7.00;;
16436;SDS011;8328;52.206;21.006;2023-03-23T08:50:21;10.67;;;6.80;;
16436;SDS011;8328;52.206;21.006;2023-03-23T08:52:50;8.40;;;6.70;;
16436;SDS011;8328;52.206;21.006;2023-03-23T08:55:18;8.67;;;6.40;;
16436;SDS011;8328;52.206;21.006;2023-03-23T08:57:45;9.50;;;5.93;;
16436;SDS011;8328;52.206;21.006;2023-03-23T09:00:13;7.30;;;5.80;;
16436;SDS011;8328;52.206;21.006;2023-03-23T09:02:47;7.70;;;5.77;;
16436;SDS011;8328;52.206;21.006;2023-03-23T09:05:16;8.17;;;5.27;;
16436;SDS011;8328;52.206;21.006;2023-03-23T09:07:46;6.97;;;5.50;;
16436;SDS011;8328;52.206;21.006;2023-03-23T09:10:13;9.13;;;5.30;;
16436;SDS011;8328;52.206;21.006;2023-03-23T09:12:40;7.97;;;5.90;;
16436;SDS011;8328;52.206;21.006;2023-03-23T09:15:07;6.17;;;5.30;;
16436;SDS011;8328;52.206;21.006;2023-03-23T09:17:39;6.43;;;4.90;;
16436;SDS011;8328;52.206;21.006;2023-03-23T09:20:11;8.23;;;5.47;;
16436;SDS011;8328;52.206;21.006;2023-03-23T09:22:45;7.03;;;5.40;;
16436;SDS011;8328;52.206;21.006;2023-03-23T09:25:13;8.20;;;6.17;;
16436;SDS011;8328;52.206;21.006;2023-03-23T09:27:44;9.17;;;5.00;;
16436;SDS011;8328;52.206;21.006;2023-03-23T09:30:12;6.97;;;5.30;;
16436;SDS011;8328;52.206;21.006;2023-03-23T09:32:39;8.90;;;5.60;;
16436;SDS011;8328;52.206;21.006;2023-03-23T09:35:09;10.00;;;5.73;;
16436;SDS011;8328;52.206;21.006;2023-03-23T09:37:37;7.00;;;5.20;;
16436;SDS011;8328;52.206;21.006;2023-03-23T09:40:05;6.53;;;5.13;;
16436;SDS011;8328;52.206;21.006;2023-03-23T09:42:41;8.30;;;5.53;;
16436;SDS011;8328;52.206;21.006;2023-03-23T09:45:22;6.70;;;5.17;;
16436;SDS011;8328;52.206;21.006;2023-03-23T09:51:02;6.73;;;4.87;;
16436;SDS011;8328;52.206;21.006;2023-03-23T09:53:44;7.53;;;5.10;;
16436;SDS011;8328;52.206;21.006;2023-03-23T09:56:15;7.63;;;5.70;;
16436;SDS011;8328;52.206;21.006;2023-03-23T09:58:46;7.67;;;5.83;;
16436;SDS011;8328;52.206;21.006;2023-03-23T10:07:08;10.70;;;5.90;;
16436;SDS011;8328;52.206;21.006;2023-03-23T10:09:43;7.97;;;5.40;;
16436;SDS011;8328;52.206;21.006;2023-03-23T10:12:17;7.40;;;5.27;;
16436;SDS011;8328;52.206;21.006;2023-03-23T10:15:09;8.00;;;5.00;;
16436;SDS011;8328;52.206;21.006;2023-03-23T10:17:45;7.17;;;5.10;;
16436;SDS011;8328;52.206;21.006;2023-03-23T10:23:41;6.60;;;4.47;;
16436;SDS011;8328;52.206;21.006;2023-03-23T10:26:00;8.13;;;4.60;;
16436;SDS011;8328;52.206;21.006;2023-03-23T10:28:38;7.13;;;4.57;;
16436;SDS011;8328;52.206;21.006;2023-03-23T10:31:16;5.50;;;4.80;;
16436;SDS011;8328;52.206;21.006;2023-03-23T10:33:47;6.73;;;4.40;;
16436;SDS011;8328;52.206;21.006;2023-03-23T10:39:12;5.90;;;4.57;;
16436;SDS011;8328;52.206;21.006;2023-03-23T10:41:42;5.80;;;4.60;;
16436;SDS011;8328;52.206;21.006;2023-03-23T10:44:22;5.73;;;4.40;;
16436;SDS011;8328;52.206;21.006;2023-03-23T10:49:28;5.33;;;3.50;;
16436;SDS011;8328;52.206;21.006;2023-03-23T10:57:39;4.03;;;3.17;;
16436;SDS011;8328;52.206;21.006;2023-03-23T11:02:47;4.30;;;3.23;;
16436;SDS011;8328;52.206;21.006;2023-03-23T11:05:35;6.47;;;3.63;;
16436;SDS011;8328;52.206;21.006;2023-03-23T11:08:26;4.80;;;3.10;;
16436;SDS011;8328;52.206;21.006;2023-03-23T11:11:07;5.27;;;3.33;;
16436;SDS011;8328;52.206;21.006;2023-03-23T11:13:44;6.73;;;3.10;;
16436;SDS011;8328;52.206;21.006;2023-03-23T11:16:24;5.20;;;3.03;;
16436;SDS011;8328;52.206;21.006;2023-03-23T11:18:56;6.00;;;3.87;;
16436;SDS011;8328;52.206;21.006;2023-03-23T11:21:25;4.27;;;3.40;;
16436;SDS011;8328;52.206;21.006;2023-03-23T11:23:53;3.90;;;3.10;;
16436;SDS011;8328;52.206;21.006;2023-03-23T11:26:30;4.40;;;3.60;;
16436;SDS011;8328;52.206;21.006;2023-03-23T11:29:08;5.40;;;3.33;;
16436;SDS011;8328;52.206;21.006;2023-03-23T11:31:39;7.60;;;3.33;;
16436;SDS011;8328;52.206;21.006;2023-03-23T11:34:17;5.97;;;3.60;;
16436;SDS011;8328;52.206;21.006;2023-03-23T11:36:50;4.33;;;3.40;;
16436;SDS011;8328;52.206;21.006;2023-03-23T11:42:20;2.13;;;1.90;;
16436;SDS011;8328;52.206;21.006;2023-03-23T11:56:39;2.63;;;2.00;;
16436;SDS011;8328;52.206;21.006;2023-03-23T11:59:17;2.40;;;2.00;;
16436;SDS011;8328;52.206;21.006;2023-03-23T12:01:56;2.77;;;1.97;;
16436;SDS011;8328;52.206;21.006;2023-03-23T12:04:38;2.93;;;2.00;;
16436;SDS011;8328;52.206;21.006;2023-03-23T12:12:44;2.60;;;1.93;;
16436;SDS011;8328;52.206;21.006;2023-03-23T12:15:34;5.60;;;2.23;;
16436;SDS011;8328;52.206;21.006;2023-03-23T12:21:08;2.23;;;1.60;;
16436;SDS011;8328;52.206;21.006;2023-03-23T12:29:48;3.13;;;2.30;;
16436;SDS011;8328;52.206;21.006;2023-03-23T12:40:44;3.67;;;2.60;;
16436;SDS011;8328;52.206;21.006;2023-03-23T12:43:37;4.30;;;2.87;;
16436;SDS011;8328;52.206;21.006;2023-03-23T12:48:56;2.90;;;2.53;;
16436;SDS011;8328;52.206;21.006;2023-03-23T12:52:39;4.80;;;3.00;;
16436;SDS011;8328;52.206;21.006;2023-03-23T12:58:11;3.33;;;3.00;;
16436;SDS011;8328;52.206;21.006;2023-03-23T13:01:02;5.40;;;3.03;;
16436;SDS011;8328;52.206;21.006;2023-03-23T13:03:44;6.00;;;3.10;;
16436;SDS011;8328;52.206;21.006;2023-03-23T13:06:36;4.00;;;2.67;;
16436;SDS011;8328;52.206;21.006;2023-03-23T13:11:38;4.67;;;3.33;;
16436;SDS011;8328;52.206;21.006;2023-03-23T13:14:15;4.37;;;3.10;;
16436;SDS011;8328;52.206;21.006;2023-03-23T13:19:58;5.03;;;2.90;;
16436;SDS011;8328;52.206;21.006;2023-03-23T13:25:39;6.07;;;2.97;;
16436;SDS011;8328;52.206;21.006;2023-03-23T13:28:21;3.97;;;3.30;;
16436;SDS011;8328;52.206;21.006;2023-03-23T13:31:41;4.93;;;3.00;;
16436;SDS011;8328;52.206;21.006;2023-03-23T13:34:22;5.27;;;3.30;;
16436;SDS011;8328;52.206;21.006;2023-03-23T13:36:55;5.03;;;3.20;;
16436;SDS011;8328;52.206;21.006;2023-03-23T13:39:29;4.20;;;2.90;;
16436;SDS011;8328;52.206;21.006;2023-03-23T13:44:26;3.40;;;2.70;;
16436;SDS011;8328;52.206;21.006;2023-03-23T14:03:05;4.17;;;2.30;;
16436;SDS011;8328;52.206;21.006;2023-03-23T14:05:51;4.40;;;2.80;;
16436;SDS011;8328;52.206;21.006;2023-03-23T14:10:56;4.37;;;2.70;;
16436;SDS011;8328;52.206;21.006;2023-03-23T14:13:32;4.80;;;2.57;;
16436;SDS011;8328;52.206;21.006;2023-03-23T14:16:03;5.50;;;2.63;;
16436;SDS011;8328;52.206;21.006;2023-03-23T14:18:38;4.93;;;2.70;;
16436;SDS011;8328;52.206;21.006;2023-03-23T14:21:06;3.70;;;2.70;;
16436;SDS011;8328;52.206;21.006;2023-03-23T14:23:39;3.20;;;2.67;;
16436;SDS011;8328;52.206;21.006;2023-03-23T14:26:10;5.20;;;2.60;;
16436;SDS011;8328;52.206;21.006;2023-03-23T14:28:40;5.43;;;2.50;;
16436;SDS011;8328;52.206;21.006;2023-03-23T14:31:21;7.70;;;3.00;;
16436;SDS011;8328;52.206;21.006;2023-03-23T14:33:50;5.63;;;3.20;;
16436;SDS011;8328;52.206;21.006;2023-03-23T14:38:55;7.97;;;3.63;;
16436;SDS011;8328;52.206;21.006;2023-03-23T14:41:39;4.83;;;3.00;;
16436;SDS011;8328;52.206;21.006;2023-03-23T14:44:06;6.13;;;3.40;;
16436;SDS011;8328;52.206;21.006;2023-03-23T14:46:37;5.27;;;3.30;;
16436;SDS011;8328;52.206;21.006;2023-03-23T14:49:03;6.90;;;3.40;;
16436;SDS011;8328;52.206;21.006;2023-03-23T14:51:31;5.37;;;3.20;;
16436;SDS011;8328;52.206;21.006;2023-03-23T14:53:58;6.43;;;3.40;;
16436;SDS011;8328;52.206;21.006;2023-03-23T14:56:31;7.07;;;3.60;;
16436;SDS011;8328;52.206;21.006;2023-03-23T14:59:04;6.40;;;4.10;;
16436;SDS011;8328;52.206;21.006;2023-03-23T15:01:34;4.33;;;3.30;;
16436;SDS011;8328;52.206;21.006;2023-03-23T15:04:23;5.13;;;3.60;;
16436;SDS011;8328;52.206;21.006;2023-03-23T15:06:51;4.23;;;3.40;;
16436;SDS011;8328;52.206;21.006;2023-03-23T15:09:24;5.97;;;3.50;;
16436;SDS011;8328;52.206;21.006;2023-03-23T15:11:52;11.20;;;4.00;;
16436;SDS011;8328;52.206;21.006;2023-03-23T15:14:27;6.33;;;3.70;;
16436;SDS011;8328;52.206;21.006;2023-03-23T15:16:56;6.60;;;3.80;;
16436;SDS011;8328;52.206;21.006;2023-03-23T15:19:28;7.17;;;3.97;;
16436;SDS011;8328;52.206;21.006;2023-03-23T15:22:04;6.20;;;3.33;;
16436;SDS011;8328;52.206;21.006;2023-03-23T15:24:51;7.43;;;4.30;;
16436;SDS011;8328;52.206;21.006;2023-03-23T15:27:32;8.37;;;4.20;;
16436;SDS011;8328;52.206;21.006;2023-03-23T15:32:54;5.87;;;4.50;;
16436;SDS011;8328;52.206;21.006;2023-03-23T15:35:32;8.37;;;3.83;;
16436;SDS011;8328;52.206;21.006;2023-03-23T15:38:01;7.97;;;3.50;;
16436;SDS011;8328;52.206;21.006;2023-03-23T15:40:32;4.80;;;3.10;;
16436;SDS011;8328;52.206;21.006;2023-03-23T15:43:08;5.47;;;4.10;;
16436;SDS011;8328;52.206;21.006;2023-03-23T15:45:53;6.70;;;3.80;;
16436;SDS011;8328;52.206;21.006;2023-03-23T15:48:23;6.10;;;4.00;;
16436;SDS011;8328;52.206;21.006;2023-03-23T15:50:53;7.30;;;3.93;;
16436;SDS011;8328;52.206;21.006;2023-03-23T15:53:24;6.90;;;3.90;;
16436;SDS011;8328;52.206;21.006;2023-03-23T15:55:57;7.53;;;4.27;;
16436;SDS011;8328;52.206;21.006;2023-03-23T15:58:28;5.50;;;3.53;;
16436;SDS011;8328;52.206;21.006;2023-03-23T16:00:55;6.00;;;3.77;;
16436;SDS011;8328;52.206;21.006;2023-03-23T16:03:27;11.13;;;3.97;;
16436;SDS011;8328;52.206;21.006;2023-03-23T16:05:56;6.87;;;4.07;;
16436;SDS011;8328;52.206;21.006;2023-03-23T16:08:27;7.63;;;3.70;;
16436;SDS011;8328;52.206;21.006;2023-03-23T16:10:56;6.07;;;4.00;;
16436;SDS011;8328;52.206;21.006;2023-03-23T16:13:24;7.47;;;4.17;;
16436;SDS011;8328;52.206;21.006;2023-03-23T16:15:51;7.30;;;4.43;;
16436;SDS011;8328;52.206;21.006;2023-03-23T16:18:19;6.10;;;4.17;;
16436;SDS011;8328;52.206;21.006;2023-03-23T16:20:49;7.30;;;4.43;;
16436;SDS011;8328;52.206;21.006;2023-03-23T16:23:15;6.80;;;4.73;;
16436;SDS011;8328;52.206;21.006;2023-03-23T16:25:42;5.87;;;3.80;;
16436;SDS011;8328;52.206;21.006;2023-03-23T16:28:09;6.97;;;3.90;;
16436;SDS011;8328;52.206;21.006;2023-03-23T16:30:39;5.57;;;3.93;;
16436;SDS011;8328;52.206;21.006;2023-03-23T16:33:05;7.33;;;4.10;;
16436;SDS011;8328;52.206;21.006;2023-03-23T16:35:31;7.23;;;3.80;;
16436;SDS011;8328;52.206;21.006;2023-03-23T16:37:58;7.47;;;3.83;;
16436;SDS011;8328;52.206;21.006;2023-03-23T16:40:24;5.17;;;3.40;;
16436;SDS011;8328;52.206;21.006;2023-03-23T16:42:51;6.80;;;3.37;;
16436;SDS011;8328;52.206;21.006;2023-03-23T16:45:18;6.10;;;3.50;;
16436;SDS011;8328;52.206;21.006;2023-03-23T16:47:46;5.97;;;3.30;;
16436;SDS011;8328;52.206;21.006;2023-03-23T16:50:18;6.27;;;3.27;;
16436;SDS011;8328;52.206;21.006;2023-03-23T16:52:44;6.60;;;3.70;;
16436;SDS011;8328;52.206;21.006;2023-03-23T16:55:11;6.03;;;3.43;;
16436;SDS011;8328;52.206;21.006;2023-03-23T16:57:38;5.20;;;3.67;;
16436;SDS011;8328;52.206;21.006;2023-03-23T17:02:44;4.53;;;3.27;;